sensor_id;sensor_type;location;lat;lon;timestamp;pressure;altitude;pressure_sealevel;temperature;humidity
7966;BME280;4028;43.272;26.932;2023-03-04T00:00:31;99231.31;;;6.89;100.00
7966;BME280;4028;43.272;26.932;2023-03-04T00:02:56;99230.34;;;6.90;100.00
7966;BME280;4028;43.272;26.932;2023-03-04T00:05:22;99225.00;;;6.92;100.00
7966;BME280;4028;43.272;26.932;2023-03-04T00:07:47;99228.81;;;6.88;100.00
7966;BME280;4028;43.272;26.932;2023-03-04T00:10:13;99229.03;;;6.85;100.00
7966;BME280;4028;43.272;26.932;2023-03-04T00:12:38;99233.59;;;6.71;100.00
7966;BME280;4028;43.272;26.932;2023-03-04T00:15:04;99234.31;;;6.85;100.00
7966;BME280;4028;43.272;26.932;2023-03-04T00:17:30;99243.06;;;6.96;100.00
7966;BME280;4028;43.272;26.932;2023-03-04T00:19:56;99233.00;;;6.90;100.00
7966;BME280;4028;43.272;26.932;2023-03-04T00:22:22;99231.09;;;6.81;100.00
7966;BME280;4028;43.272;26.932;2023-03-04T00:24:48;99221.16;;;6.85;100.00
7966;BME280;4028;43.272;26.932;2023-03-04T00:27:13;99240.53;;;6.95;100.00
7966;BME280;4028;43.272;26.932;2023-03-04T00:29:39;99239.56;;;6.85;100.00
7966;BME280;4028;43.272;26.932;2023-03-04T00:32:04;99237.06;;;6.83;100.00
7966;BME280;4028;43.272;26.932;2023-03-04T00:34:30;99236.56;;;6.78;100.00
7966;BME280;4028;43.272;26.932;2023-03-04T00:36:55;99226.88;;;6.78;100.00
7966;BME280;4028;43.272;26.932;2023-03-04T00:39:26;99227.63;;;6.92;100.00
7966;BME280;4028;43.272;26.932;2023-03-04T00:41:52;99227.16;;;6.87;100.00
7966;BME280;4028;43.272;26.932;2023-03-04T00:44:17;99231.78;;;6.83;100.00
7966;BME280;4028;43.272;26.932;2023-03-04T00:46:46;99233.13;;;6.89;100.00
7966;BME280;4028;43.272;26.932;2023-03-04T00:49:11;99225.44;;;6.86;100.00
7966;BME280;4028;43.272;26.932;2023-03-04T00:51:37;99230.00;;;6.95;100.00
7966;BME280;4028;43.272;26.932;2023-03-04T00:54:02;99225.44;;;6.86;100.00
7966;BME280;4028;43.272;26.932;2023-03-04T00:56:28;99212.44;;;6.84;100.00
7966;BME280;4028;43.272;26.932;2023-03-04T00:58:54;99208.47;;;6.78;100.00
7966;BME280;4028;43.272;26.932;2023-03-04T01:01:19;99217.06;;;6.81;100.00
7966;BME280;4028;43.272;26.932;2023-03-04T01:03:45;99206.56;;;6.81;100.00
7966;BME280;4028;43.272;26.932;2023-03-04T01:06:10;99209.31;;;6.79;100.00
7966;BME280;4028;43.272;26.932;2023-03-04T01:08:36;99213.88;;;6.88;100.00
7966;BME280;4028;43.272;26.932;2023-03-04T01:11:02;99208.38;;;6.91;100.00
7966;BME280;4028;43.272;26.932;2023-03-04T01:13:28;99204.19;;;6.89;100.00
7966;BME280;4028;43.272;26.932;2023-03-04T01:15:53;99200.09;;;6.85;100.00
7966;BME280;4028;43.272;26.932;2023-03-04T01:18:20;99204.88;;;6.91;100.00
7966;BME280;4028;43.272;26.932;2023-03-04T01:20:45;99213.88;;;6.88;100.00
7966;BME280;4028;43.272;26.932;2023-03-04T01:23:11;99218.66;;;6.83;100.00
7966;BME280;4028;43.272;26.932;2023-03-04T01:25:36;99214.34;;;6.82;100.00
7966;BME280;4028;43.272;26.932;2023-03-04T01:28:02;99216.16;;;6.93;100.00
7966;BME280;4028;43.272;26.932;2023-03-04T01:30:27;99208.13;;;6.83;100.00
7966;BME280;4028;43.272;26.932;2023-03-04T01:32:53;99207.66;;;6.78;100.00
7966;BME280;4028;43.272;26.932;2023-03-04T01:35:18;99204.88;;;6.91;100.00
7966;BME280;4028;43.272;26.932;2023-03-04T01:37:44;99209.78;;;6.73;100.00
7966;BME280;4028;43.272;26.932;2023-03-04T01:40:10;99202.13;;;6.70;100.00
7966;BME280;4028;43.272;26.932;2023-03-04T01:42:36;99203.22;;;6.67;100.00
7966;BME280;4028;43.272;26.932;2023-03-04T01:45:03;99198.44;;;6.84;100.00
7966;BME280;4028;43.272;26.932;2023-03-04T01:47:30;99203.00;;;6.82;100.00
7966;BME280;4028;43.272;26.932;2023-03-04T01:49:59;99203.22;;;7.01;100.00
7966;BME280;4028;43.272;26.932;2023-03-04T01:52:26;99192.94;;;6.87;100.00
7966;BME280;4028;43.272;26.932;2023-03-04T01:54:52;99194.38;;;6.80;100.00
7966;BME280;4028;43.272;26.932;2023-03-04T01:57:22;99197.34;;;6.75;100.00
7966;BME280;4028;43.272;26.932;2023-03-04T02:00:16;99199.63;;;6.68;100.00
7966;BME280;4028;43.272;26.932;2023-03-04T02:02:43;99193.53;;;6.57;100.00
7966;BME280;4028;43.272;26.932;2023-03-04T02:05:09;99198.91;;;6.77;100.00
7966;BME280;4028;43.272;26.932;2023-03-04T02:07:35;99200.94;;;6.74;100.00
7966;BME280;4028;43.272;26.932;2023-03-04T02:10:02;99198.44;;;6.84;100.00
7966;BME280;4028;43.272;26.932;2023-03-04T02:12:27;99196.66;;;6.84;100.00
7966;BME280;4028;43.272;26.932;2023-03-04T02:14:53;99193.19;;;6.84;100.00
7966;BME280;4028;43.272;26.932;2023-03-04T02:17:24;99196.28;;;6.89;100.00
7966;BME280;4028;43.272;26.932;2023-03-04T02:20:02;99194.13;;;6.94;100.00
7966;BME280;4028;43.272;26.932;2023-03-04T02:22:30;99185.66;;;7.01;100.00
7966;BME280;4028;43.272;26.932;2023-03-04T02:25:12;99186.47;;;6.91;100.00
7966;BME280;4028;43.272;26.932;2023-03-04T02:27:39;99186.84;;;6.75;100.00
7966;BME280;4028;43.272;26.932;2023-03-04T02:30:06;99192.47;;;6.82;100.00
7966;BME280;4028;43.272;26.932;2023-03-04T02:32:32;99186.47;;;6.80;100.00
7966;BME280;4028;43.272;26.932;2023-03-04T02:34:58;99185.28;;;6.72;100.00
7966;BME280;4028;43.272;26.932;2023-03-04T02:37:23;99177.53;;;6.71;100.00
7966;BME280;4028;43.272;26.932;2023-03-04T02:39:49;99189.59;;;6.73;100.00
7966;BME280;4028;43.272;26.932;2023-03-04T02:42:15;99192.00;;;6.76;100.00
7966;BME280;4028;43.272;26.932;2023-03-04T02:44:42;99184.81;;;6.78;100.00
7966;BME280;4028;43.272;26.932;2023-03-04T02:47:11;99171.44;;;6.82;100.00
7966;BME280;4028;43.272;26.932;2023-03-04T02:49:38;99188.03;;;6.82;100.00
7966;BME280;4028;43.272;26.932;2023-03-04T02:52:24;99183.84;;;6.91;100.00
7966;BME280;4028;43.272;26.932;2023-03-04T02:54:50;99195.09;;;6.82;100.00
7966;BME280;4028;43.272;26.932;2023-03-04T02:57:16;99189.84;;;6.93;100.00
7966;BME280;4028;43.272;26.932;2023-03-04T02:59:41;99181.94;;;6.82;100.00
7966;BME280;4028;43.272;26.932;2023-03-04T03:02:07;99174.28;;;6.90;100.00
7966;BME280;4028;43.272;26.932;2023-03-04T03:04:35;99180.50;;;6.77;100.00
7966;BME280;4028;43.272;26.932;2023-03-04T03:07:02;99186.00;;;6.74;100.00
7966;BME280;4028;43.272;26.932;2023-03-04T03:09:27;99184.06;;;6.65;100.00
7966;BME280;4028;43.272;26.932;2023-03-04T03:11:53;99186.47;;;6.68;100.00
7966;BME280;4028;43.272;26.932;2023-03-04T03:14:19;99190.28;;;6.75;100.00
7966;BME280;4028;43.272;26.932;2023-03-04T03:16:44;99176.09;;;6.67;100.00
7966;BME280;4028;43.272;26.932;2023-03-04T03:19:09;99175.25;;;6.66;100.00
7966;BME280;4028;43.272;26.932;2023-03-04T03:21:35;99172.97;;;6.73;100.00
7966;BME280;4028;43.272;26.932;2023-03-04T03:24:00;99176.09;;;6.67;100.00
7966;BME280;4028;43.272;26.932;2023-03-04T03:26:26;99182.19;;;6.67;100.00
7966;BME280;4028;43.272;26.932;2023-03-04T03:28:51;99174.41;;;6.77;100.00
7966;BME280;4028;43.272;26.932;2023-03-04T03:31:17;99176.78;;;6.69;100.00
7966;BME280;4028;43.272;26.932;2023-03-04T03:33:44;99176.78;;;6.69;100.00
7966;BME280;4028;43.272;26.932;2023-03-04T03:36:09;99163.41;;;6.72;100.00
7966;BME280;4028;43.272;26.932;2023-03-04T03:38:35;99161.72;;;6.60;100.00
7966;BME280;4028;43.272;26.932;2023-03-04T03:41:00;99160.19;;;6.57;100.00
7966;BME280;4028;43.272;26.932;2023-03-04T03:43:26;99181.44;;;6.65;100.00
7966;BME280;4028;43.272;26.932;2023-03-04T03:45:51;99184.31;;;6.62;100.00
7966;BME280;4028;43.272;26.932;2023-03-04T03:48:17;99185.28;;;6.72;100.00
7966;BME280;4028;43.272;26.932;2023-03-04T03:50:42;99185.03;;;6.64;100.00
7966;BME280;4028;43.272;26.932;2023-03-04T03:53:08;99171.25;;;6.49;100.00
7966;BME280;4028;43.272;26.932;2023-03-04T03:55:33;99178.66;;;6.44;100.00
7966;BME280;4028;43.272;26.932;2023-03-04T03:57:59;99181.41;;;6.43;100.00
7966;BME280;4028;43.272;26.932;2023-03-04T04:00:24;99175.31;;;6.42;100.00
7966;BME280;4028;43.272;26.932;2023-03-04T04:02:51;99182.88;;;6.47;100.00
7966;BME280;4028;43.272;26.932;2023-03-04T04:05:17;99176.28;;;6.30;100.00
7966;BME280;4028;43.272;26.932;2023-03-04T04:07:43;99168.47;;;6.29;100.00
7966;BME280;4028;43.272;26.932;2023-03-04T04:10:09;99149.84;;;6.20;100.00
7966;BME280;4028;43.272;26.932;2023-03-04T04:12:35;99164.78;;;6.31;100.00
7966;BME280;4028;43.272;26.932;2023-03-04T04:15:01;99167.31;;;6.33;100.00
7966;BME280;4028;43.272;26.932;2023-03-04T04:17:26;99174.72;;;6.39;100.00
7966;BME280;4028;43.272;26.932;2023-03-04T04:19:52;99182.34;;;6.31;100.00
7966;BME280;4028;43.272;26.932;2023-03-04T04:22:18;99179.94;;;6.28;100.00
7966;BME280;4028;43.272;26.932;2023-03-04T04:24:45;99173.72;;;6.29;100.00
7966;BME280;4028;43.272;26.932;2023-03-04T04:27:10;99188.25;;;6.45;100.00
7966;BME280;4028;43.272;26.932;2023-03-04T04:29:36;99175.53;;;6.39;100.00
7966;BME280;4028;43.272;26.932;2023-03-04T04:32:02;99180.00;;;6.50;100.00
7966;BME280;4028;43.272;26.932;2023-03-04T04:34:27;99175.69;;;6.49;100.00
7966;BME280;4028;43.272;26.932;2023-03-04T04:36:53;99180.72;;;6.52;100.00
7966;BME280;4028;43.272;26.932;2023-03-04T04:39:18;99169.50;;;6.50;100.00
7966;BME280;4028;43.272;26.932;2023-03-04T04:41:44;99186.94;;;6.62;100.00
7966;BME280;4028;43.272;26.932;2023-03-04T04:44:11;99191.13;;;6.65;100.00
7966;BME280;4028;43.272;26.932;2023-03-04T04:46:38;99196.84;;;6.59;100.00
7966;BME280;4028;43.272;26.932;2023-03-04T04:49:04;99203.91;;;6.47;100.00
7966;BME280;4028;43.272;26.932;2023-03-04T04:51:30;99211.97;;;6.33;100.00
7966;BME280;4028;43.272;26.932;2023-03-04T04:53:56;99215.94;;;6.38;100.00
7966;BME280;4028;43.272;26.932;2023-03-04T04:56:23;99226.94;;;6.43;100.00
7966;BME280;4028;43.272;26.932;2023-03-04T04:58:51;99229.22;;;6.48;100.00
7966;BME280;4028;43.272;26.932;2023-03-04T05:01:17;99229.50;;;6.56;100.00
7966;BME280;4028;43.272;26.932;2023-03-04T05:03:43;99220.53;;;6.59;100.00
7966;BME280;4028;43.272;26.932;2023-03-04T05:06:09;99217.53;;;6.63;100.00
7966;BME280;4028;43.272;26.932;2023-03-04T05:08:35;99223.50;;;6.65;100.00
7966;BME280;4028;43.272;26.932;2023-03-04T05:11:02;99218.16;;;6.67;100.00
7966;BME280;4028;43.272;26.932;2023-03-04T05:13:28;99229.25;;;6.70;100.00
7966;BME280;4028;43.272;26.932;2023-03-04T05:15:55;99232.34;;;6.64;100.00
7966;BME280;4028;43.272;26.932;2023-03-04T05:18:22;99228.41;;;6.59;100.00
7966;BME280;4028;43.272;26.932;2023-03-04T05:20:52;99235.94;;;6.63;100.00
7966;BME280;4028;43.272;26.932;2023-03-04T05:23:18;99242.63;;;6.56;100.00
7966;BME280;4028;43.272;26.932;2023-03-04T05:25:43;99238.31;;;6.55;100.00
7966;BME280;4028;43.272;26.932;2023-03-04T05:28:09;99248.47;;;6.60;100.00
7966;BME280;4028;43.272;26.932;2023-03-04T05:30:40;99245.00;;;6.59;100.00
7966;BME280;4028;43.272;26.932;2023-03-04T05:33:07;99245.41;;;6.66;100.00
7966;BME280;4028;43.272;26.932;2023-03-04T05:35:37;99236.16;;;6.60;100.00
7966;BME280;4028;43.272;26.932;2023-03-04T05:38:04;99230.66;;;6.41;100.00
7966;BME280;4028;43.272;26.932;2023-03-04T05:40:30;99248.38;;;6.61;100.00
7966;BME280;4028;43.272;26.932;2023-03-04T05:42:56;99251.22;;;6.47;100.00
7966;BME280;4028;43.272;26.932;2023-03-04T05:45:22;99250.63;;;6.55;100.00
7966;BME280;4028;43.272;26.932;2023-03-04T05:47:48;99256.97;;;6.63;100.00
7966;BME280;4028;43.272;26.932;2023-03-04T05:50:13;99221.09;;;6.40;100.00
7966;BME280;4028;43.272;26.932;2023-03-04T05:52:39;99254.97;;;6.67;100.00
7966;BME280;4028;43.272;26.932;2023-03-04T05:55:05;99259.28;;;6.68;100.00
7966;BME280;4028;43.272;26.932;2023-03-04T05:57:30;99251.16;;;6.71;100.00
7966;BME280;4028;43.272;26.932;2023-03-04T05:59:56;99247.44;;;6.73;100.00
7966;BME280;4028;43.272;26.932;2023-03-04T06:02:21;99250.69;;;6.77;100.00
7966;BME280;4028;43.272;26.932;2023-03-04T06:04:47;99244.44;;;6.67;100.00
7966;BME280;4028;43.272;26.932;2023-03-04T06:07:12;99252.00;;;6.71;100.00
7966;BME280;4028;43.272;26.932;2023-03-04T06:09:38;99256.28;;;6.72;100.00
7966;BME280;4028;43.272;26.932;2023-03-04T06:12:03;99263.00;;;6.76;100.00
7966;BME280;4028;43.272;26.932;2023-03-04T06:14:29;99258.09;;;6.83;100.00
7966;BME280;4028;43.272;26.932;2023-03-04T06:16:54;99263.22;;;6.85;100.00
7966;BME280;4028;43.272;26.932;2023-03-04T06:19:20;99260.75;;;6.94;100.00
7966;BME280;4028;43.272;26.932;2023-03-04T06:21:46;99264.09;;;6.96;100.00
7966;BME280;4028;43.272;26.932;2023-03-04T06:24:11;99263.72;;;7.01;100.00
7966;BME280;4028;43.272;26.932;2023-03-04T06:26:37;99257.16;;;6.95;100.00
7966;BME280;4028;43.272;26.932;2023-03-04T06:29:03;99256.56;;;6.92;100.00
7966;BME280;4028;43.272;26.932;2023-03-04T06:31:29;99262.19;;;6.98;100.00
7966;BME280;4028;43.272;26.932;2023-03-04T06:33:54;99267.09;;;7.03;100.00
7966;BME280;4028;43.272;26.932;2023-03-04T06:36:20;99262.78;;;7.02;100.00
7966;BME280;4028;43.272;26.932;2023-03-04T06:38:45;99261.97;;;7.13;100.00
7966;BME280;4028;43.272;26.932;2023-03-04T06:41:12;99263.16;;;7.09;100.00
7966;BME280;4028;43.272;26.932;2023-03-04T06:43:38;99246.53;;;7.08;100.00
7966;BME280;4028;43.272;26.932;2023-03-04T06:46:05;99263.38;;;7.06;100.00
7966;BME280;4028;43.272;26.932;2023-03-04T06:48:31;99254.91;;;7.13;100.00
7966;BME280;4028;43.272;26.932;2023-03-04T06:50:56;99253.59;;;7.19;100.00
7966;BME280;4028;43.272;26.932;2023-03-04T06:53:22;99246.78;;;7.27;100.00
7966;BME280;4028;43.272;26.932;2023-03-04T06:55:48;99249.28;;;7.29;100.00
7966;BME280;4028;43.272;26.932;2023-03-04T06:58:14;99252.97;;;7.15;100.00
7966;BME280;4028;43.272;26.932;2023-03-04T07:00:42;99247.13;;;7.12;100.00
7966;BME280;4028;43.272;26.932;2023-03-04T07:03:10;99253.59;;;6.96;100.00
7966;BME280;4028;43.272;26.932;2023-03-04T07:05:36;99247.84;;;7.02;100.00
7966;BME280;4028;43.272;26.932;2023-03-04T07:08:02;99242.44;;;7.15;100.00
7966;BME280;4028;43.272;26.932;2023-03-04T07:10:27;99243.53;;;7.35;100.00
7966;BME280;4028;43.272;26.932;2023-03-04T07:12:53;99231.03;;;7.60;100.00
7966;BME280;4028;43.272;26.932;2023-03-04T07:15:18;99231.47;;;7.76;100.00
7966;BME280;4028;43.272;26.932;2023-03-04T07:17:44;99236.31;;;8.03;100.00
7966;BME280;4028;43.272;26.932;2023-03-04T07:20:10;99214.94;;;8.17;100.00
7966;BME280;4028;43.272;26.932;2023-03-04T07:22:35;99227.97;;;8.51;100.00
7966;BME280;4028;43.272;26.932;2023-03-04T07:25:01;99220.47;;;8.98;100.00
7966;BME280;4028;43.272;26.932;2023-03-04T07:27:26;99217.13;;;9.96;100.00
7966;BME280;4028;43.272;26.932;2023-03-04T07:29:52;99216.72;;;10.49;100.00
7966;BME280;4028;43.272;26.932;2023-03-04T07:32:17;99212.91;;;10.80;100.00
7966;BME280;4028;43.272;26.932;2023-03-04T07:34:43;99211.81;;;10.54;100.00
7966;BME280;4028;43.272;26.932;2023-03-04T07:37:08;99202.81;;;10.37;100.00
7966;BME280;4028;43.272;26.932;2023-03-04T07:39:34;99206.59;;;10.25;100.00
7966;BME280;4028;43.272;26.932;2023-03-04T07:41:59;99211.53;;;10.18;100.00
7966;BME280;4028;43.272;26.932;2023-03-04T07:44:25;99199.72;;;9.74;100.00
7966;BME280;4028;43.272;26.932;2023-03-04T07:46:50;99208.34;;;9.95;100.00
7966;BME280;4028;43.272;26.932;2023-03-04T07:49:16;99201.38;;;9.75;100.00
7966;BME280;4028;43.272;26.932;2023-03-04T07:51:41;99195.09;;;9.56;100.00
7966;BME280;4028;43.272;26.932;2023-03-04T07:54:07;99196.94;;;9.95;100.00
7966;BME280;4028;43.272;26.932;2023-03-04T07:56:33;99183.44;;;10.07;100.00
7966;BME280;4028;43.272;26.932;2023-03-04T07:58:59;99187.72;;;10.66;100.00
7966;BME280;4028;43.272;26.932;2023-03-04T08:01:28;99185.19;;;11.39;100.00
7966;BME280;4028;43.272;26.932;2023-03-04T08:03:55;99196.06;;;11.64;100.00
7966;BME280;4028;43.272;26.932;2023-03-04T08:06:20;99186.06;;;11.58;100.00
7966;BME280;4028;43.272;26.932;2023-03-04T08:08:47;99196.03;;;11.46;100.00
7966;BME280;4028;43.272;26.932;2023-03-04T08:11:18;99190.03;;;11.44;100.00
7966;BME280;4028;43.272;26.932;2023-03-04T08:13:45;99191.41;;;12.11;100.00
7966;BME280;4028;43.272;26.932;2023-03-04T08:16:12;99190.28;;;12.84;100.00
7966;BME280;4028;43.272;26.932;2023-03-04T08:18:43;99182.94;;;14.13;100.00
7966;BME280;4028;43.272;26.932;2023-03-04T08:21:11;99187.03;;;15.05;98.36
7966;BME280;4028;43.272;26.932;2023-03-04T08:23:37;99186.09;;;14.41;99.22
7966;BME280;4028;43.272;26.932;2023-03-04T08:26:12;99193.59;;;14.29;100.00
7966;BME280;4028;43.272;26.932;2023-03-04T08:28:39;99180.22;;;14.86;95.22
7966;BME280;4028;43.272;26.932;2023-03-04T08:31:04;99175.31;;;15.84;81.56
7966;BME280;4028;43.272;26.932;2023-03-04T08:33:31;99181.44;;;16.16;73.97
7966;BME280;4028;43.272;26.932;2023-03-04T08:35:56;99174.59;;;15.91;73.55
7966;BME280;4028;43.272;26.932;2023-03-04T08:38:22;99163.69;;;16.61;73.99
7966;BME280;4028;43.272;26.932;2023-03-04T08:40:51;99176.38;;;17.26;65.20
7966;BME280;4028;43.272;26.932;2023-03-04T08:43:17;99179.03;;;17.41;65.50
7966;BME280;4028;43.272;26.932;2023-03-04T08:45:42;99176.66;;;17.17;63.28
7966;BME280;4028;43.272;26.932;2023-03-04T08:48:08;99171.50;;;17.00;64.93
7966;BME280;4028;43.272;26.932;2023-03-04T08:50:34;99173.59;;;17.20;63.65
7966;BME280;4028;43.272;26.932;2023-03-04T08:53:00;99176.56;;;16.57;65.94
7966;BME280;4028;43.272;26.932;2023-03-04T08:55:25;99175.56;;;16.21;68.63
7966;BME280;4028;43.272;26.932;2023-03-04T08:57:51;99164.00;;;16.28;69.24
7966;BME280;4028;43.272;26.932;2023-03-04T09:00:16;99165.69;;;15.75;71.27
7966;BME280;4028;43.272;26.932;2023-03-04T09:02:42;99169.06;;;15.30;83.17
7966;BME280;4028;43.272;26.932;2023-03-04T09:05:08;99165.53;;;15.77;82.75
7966;BME280;4028;43.272;26.932;2023-03-04T09:07:33;99157.25;;;16.32;74.43
7966;BME280;4028;43.272;26.932;2023-03-04T09:09:59;99155.25;;;17.02;69.90
7966;BME280;4028;43.272;26.932;2023-03-04T09:12:24;99159.63;;;17.39;65.80
7966;BME280;4028;43.272;26.932;2023-03-04T09:14:50;99166.88;;;16.79;64.95
7966;BME280;4028;43.272;26.932;2023-03-04T09:17:15;99158.34;;;16.00;68.26
7966;BME280;4028;43.272;26.932;2023-03-04T09:19:41;99160.25;;;15.29;79.81
7966;BME280;4028;43.272;26.932;2023-03-04T09:22:06;99160.81;;;14.53;89.39
7966;BME280;4028;43.272;26.932;2023-03-04T09:24:31;99155.50;;;14.20;100.00
7966;BME280;4028;43.272;26.932;2023-03-04T09:26:57;99154.59;;;13.63;100.00
7966;BME280;4028;43.272;26.932;2023-03-04T09:29:22;99148.59;;;13.52;95.54
7966;BME280;4028;43.272;26.932;2023-03-04T09:31:49;99149.81;;;12.56;100.00
7966;BME280;4028;43.272;26.932;2023-03-04T09:34:14;99143.81;;;11.74;100.00
7966;BME280;4028;43.272;26.932;2023-03-04T09:36:40;99140.97;;;11.85;100.00
7966;BME280;4028;43.272;26.932;2023-03-04T09:39:05;99137.41;;;12.90;100.00
7966;BME280;4028;43.272;26.932;2023-03-04T09:41:43;99133.38;;;14.28;79.33
7966;BME280;4028;43.272;26.932;2023-03-04T09:44:17;99125.03;;;15.42;65.24
7966;BME280;4028;43.272;26.932;2023-03-04T09:46:46;99118.44;;;16.45;59.65
7966;BME280;4028;43.272;26.932;2023-03-04T09:49:13;99112.94;;;16.08;58.20
7966;BME280;4028;43.272;26.932;2023-03-04T09:57:17;99112.44;;;16.43;56.43
7966;BME280;4028;43.272;26.932;2023-03-04T10:00:13;99102.16;;;17.50;54.92
7966;BME280;4028;43.272;26.932;2023-03-04T10:05:17;99112.19;;;18.05;51.19
7966;BME280;4028;43.272;26.932;2023-03-04T10:07:49;99106.34;;;17.74;50.84
7966;BME280;4028;43.272;26.932;2023-03-04T10:10:36;99101.75;;;17.89;51.71
7966;BME280;4028;43.272;26.932;2023-03-04T10:13:05;99103.38;;;18.11;51.74
7966;BME280;4028;43.272;26.932;2023-03-04T10:15:39;99107.28;;;17.30;52.35
7966;BME280;4028;43.272;26.932;2023-03-04T10:18:13;99110.44;;;16.59;55.51
7966;BME280;4028;43.272;26.932;2023-03-04T10:21:01;99104.47;;;15.82;58.57
7966;BME280;4028;43.272;26.932;2023-03-04T10:23:30;99097.66;;;15.79;59.88
7966;BME280;4028;43.272;26.932;2023-03-04T10:25:58;99094.47;;;15.53;60.60
7966;BME280;4028;43.272;26.932;2023-03-04T10:28:28;99095.34;;;15.14;63.27
7966;BME280;4028;43.272;26.932;2023-03-04T10:31:18;99093.28;;;14.93;66.40
7966;BME280;4028;43.272;26.932;2023-03-04T10:33:44;99089.00;;;14.84;67.98
7966;BME280;4028;43.272;26.932;2023-03-04T10:39:05;99086.63;;;14.89;69.27
7966;BME280;4028;43.272;26.932;2023-03-04T10:41:32;99064.53;;;14.80;68.08
7966;BME280;4028;43.272;26.932;2023-03-04T10:46:23;99074.97;;;14.51;75.72
7966;BME280;4028;43.272;26.932;2023-03-04T10:48:48;99070.84;;;14.24;80.71
7966;BME280;4028;43.272;26.932;2023-03-04T10:51:19;99063.53;;;14.01;82.77
7966;BME280;4028;43.272;26.932;2023-03-04T10:54:29;99071.19;;;14.13;81.57
7966;BME280;4028;43.272;26.932;2023-03-04T10:56:38;99058.97;;;14.43;80.57
7966;BME280;4028;43.272;26.932;2023-03-04T11:01:49;99035.06;;;15.13;72.44
7966;BME280;4028;43.272;26.932;2023-03-04T11:04:19;99034.47;;;15.03;70.00
7966;BME280;4028;43.272;26.932;2023-03-04T11:06:47;99029.09;;;14.80;74.20
7966;BME280;4028;43.272;26.932;2023-03-04T11:09:27;99020.28;;;14.24;79.63
7966;BME280;4028;43.272;26.932;2023-03-04T11:12:00;99016.00;;;13.66;91.94
7966;BME280;4028;43.272;26.932;2023-03-04T11:14:39;99021.00;;;13.85;99.27
7966;BME280;4028;43.272;26.932;2023-03-04T11:17:18;99023.47;;;13.95;100.00
7966;BME280;4028;43.272;26.932;2023-03-04T11:19:48;99016.84;;;13.99;99.36
7966;BME280;4028;43.272;26.932;2023-03-04T11:22:17;99011.38;;;13.60;100.00
7966;BME280;4028;43.272;26.932;2023-03-04T11:24:47;99012.31;;;13.18;100.00
7966;BME280;4028;43.272;26.932;2023-03-04T11:27:20;99007.34;;;13.23;100.00
7966;BME280;4028;43.272;26.932;2023-03-04T11:29:55;99004.66;;;13.15;100.00
7966;BME280;4028;43.272;26.932;2023-03-04T11:32:36;99005.34;;;13.17;100.00
7966;BME280;4028;43.272;26.932;2023-03-04T11:35:24;98997.22;;;13.35;100.00
7966;BME280;4028;43.272;26.932;2023-03-04T11:38:59;98987.78;;;13.32;100.00
7966;BME280;4028;43.272;26.932;2023-03-04T11:40:58;98972.31;;;13.44;100.00
7966;BME280;4028;43.272;26.932;2023-03-04T11:43:31;98974.94;;;13.93;100.00
7966;BME280;4028;43.272;26.932;2023-03-04T11:52:22;98962.47;;;13.85;100.00
7966;BME280;4028;43.272;26.932;2023-03-04T12:12:05;98960.06;;;14.70;97.37
7966;BME280;4028;43.272;26.932;2023-03-04T12:14:43;98951.25;;;14.93;86.48
7966;BME280;4028;43.272;26.932;2023-03-04T12:20:39;98960.22;;;14.29;97.71
7966;BME280;4028;43.272;26.932;2023-03-04T12:26:03;98959.00;;;13.93;100.00
7966;BME280;4028;43.272;26.932;2023-03-04T12:28:39;98954.13;;;14.13;100.00
7966;BME280;4028;43.272;26.932;2023-03-04T12:39:46;98945.88;;;13.83;100.00
7966;BME280;4028;43.272;26.932;2023-03-04T12:45:16;98944.88;;;13.92;100.00
7966;BME280;4028;43.272;26.932;2023-03-04T12:55:46;98913.84;;;13.60;100.00
7966;BME280;4028;43.272;26.932;2023-03-04T12:58:31;98918.66;;;13.65;100.00
7966;BME280;4028;43.272;26.932;2023-03-04T13:01:15;98921.25;;;13.97;100.00
7966;BME280;4028;43.272;26.932;2023-03-04T13:14:24;98900.53;;;13.68;93.32
7966;BME280;4028;43.272;26.932;2023-03-04T13:16:52;98896.38;;;13.74;93.87
7966;BME280;4028;43.272;26.932;2023-03-04T13:28:26;98878.00;;;13.95;77.08
7966;BME280;4028;43.272;26.932;2023-03-04T13:43:39;98854.38;;;14.40;69.50
7966;BME280;4028;43.272;26.932;2023-03-04T13:49:07;98841.38;;;14.68;70.01
7966;BME280;4028;43.272;26.932;2023-03-04T13:51:39;98849.00;;;14.94;65.47
7966;BME280;4028;43.272;26.932;2023-03-04T13:56:39;98841.75;;;14.65;64.75
7966;BME280;4028;43.272;26.932;2023-03-04T14:01:35;98831.63;;;14.29;65.20
7966;BME280;4028;43.272;26.932;2023-03-04T14:04:28;98840.47;;;14.21;66.88
7966;BME280;4028;43.272;26.932;2023-03-04T14:06:57;98834.00;;;14.24;69.41
7966;BME280;4028;43.272;26.932;2023-03-04T14:09:25;98841.44;;;13.97;72.94
7966;BME280;4028;43.272;26.932;2023-03-04T14:11:54;98829.69;;;14.23;70.48
7966;BME280;4028;43.272;26.932;2023-03-04T14:14:39;98827.78;;;14.00;71.45
7966;BME280;4028;43.272;26.932;2023-03-04T14:17:16;98826.03;;;14.16;71.36
7966;BME280;4028;43.272;26.932;2023-03-04T14:19:45;98820.09;;;14.14;73.19
7966;BME280;4028;43.272;26.932;2023-03-04T14:22:21;98816.72;;;14.20;74.87
7966;BME280;4028;43.272;26.932;2023-03-04T14:27:22;98826.22;;;13.83;74.90
7966;BME280;4028;43.272;26.932;2023-03-04T14:29:54;98815.03;;;13.40;82.66
7966;BME280;4028;43.272;26.932;2023-03-04T14:32:20;98818.88;;;13.13;95.43
7966;BME280;4028;43.272;26.932;2023-03-04T14:34:48;98819.38;;;13.17;97.99
7966;BME280;4028;43.272;26.932;2023-03-04T14:37:23;98816.72;;;13.25;98.67
7966;BME280;4028;43.272;26.932;2023-03-04T14:39:55;98807.53;;;13.44;95.73
7966;BME280;4028;43.272;26.932;2023-03-04T14:42:24;98811.16;;;13.51;94.73
7966;BME280;4028;43.272;26.932;2023-03-04T14:44:54;98803.06;;;13.44;99.88
7966;BME280;4028;43.272;26.932;2023-03-04T14:47:34;98803.06;;;13.52;97.21
7966;BME280;4028;43.272;26.932;2023-03-04T14:50:09;98804.91;;;13.36;100.00
7966;BME280;4028;43.272;26.932;2023-03-04T14:52:39;98800.28;;;13.30;100.00
7966;BME280;4028;43.272;26.932;2023-03-04T14:55:27;98801.09;;;13.30;95.21
7966;BME280;4028;43.272;26.932;2023-03-04T14:58:19;98796.31;;;13.01;95.79
7966;BME280;4028;43.272;26.932;2023-03-04T15:00:45;98804.78;;;12.88;98.40
7966;BME280;4028;43.272;26.932;2023-03-04T15:03:24;98802.13;;;12.72;100.00